sensor_id;sensor_type;location;lat;lon;timestamp;temperature;humidity
54485;DHT22;45006;56.958;24.166;2023-01-15T00:00:51;23.80;83.00
54485;DHT22;45006;56.958;24.166;2023-01-15T00:03:18;23.80;83.10
54485;DHT22;45006;56.958;24.166;2023-01-15T00:05:45;23.80;83.00
54485;DHT22;45006;56.958;24.166;2023-01-15T00:08:11;23.80;83.30
54485;DHT22;45006;56.958;24.166;2023-01-15T00:10:38;23.80;83.40
54485;DHT22;45006;56.958;24.166;2023-01-15T00:13:05;23.80;84.10
54485;DHT22;45006;56.958;24.166;2023-01-15T00:15:32;23.80;84.20
54485;DHT22;45006;56.958;24.166;2023-01-15T00:17:58;23.80;84.30
54485;DHT22;45006;56.958;24.166;2023-01-15T00:20:25;23.80;84.60
54485;DHT22;45006;56.958;24.166;2023-01-15T00:22:52;23.80;85.10
54485;DHT22;45006;56.958;24.166;2023-01-15T00:25:19;23.80;85.40
54485;DHT22;45006;56.958;24.166;2023-01-15T00:28:05;23.90;85.70
54485;DHT22;45006;56.958;24.166;2023-01-15T00:30:32;23.90;86.00
54485;DHT22;45006;56.958;24.166;2023-01-15T00:32:59;23.90;86.80
54485;DHT22;45006;56.958;24.166;2023-01-15T00:35:26;23.90;87.30
54485;DHT22;45006;56.958;24.166;2023-01-15T00:37:53;23.90;87.30
54485;DHT22;45006;56.958;24.166;2023-01-15T00:40:20;23.90;87.50
54485;DHT22;45006;56.958;24.166;2023-01-15T00:42:47;23.90;88.10
54485;DHT22;45006;56.958;24.166;2023-01-15T00:45:20;23.90;87.80
54485;DHT22;45006;56.958;24.166;2023-01-15T00:47:47;23.90;87.90
54485;DHT22;45006;56.958;24.166;2023-01-15T00:50:16;23.90;88.00
54485;DHT22;45006;56.958;24.166;2023-01-15T00:52:42;23.90;87.70
54485;DHT22;45006;56.958;24.166;2023-01-15T00:55:09;23.90;87.70
54485;DHT22;45006;56.958;24.166;2023-01-15T00:57:36;23.90;87.80
54485;DHT22;45006;56.958;24.166;2023-01-15T01:00:03;23.90;88.30
54485;DHT22;45006;56.958;24.166;2023-01-15T01:02:30;23.90;88.50
54485;DHT22;45006;56.958;24.166;2023-01-15T01:04:57;23.90;88.50
54485;DHT22;45006;56.958;24.166;2023-01-15T01:07:23;23.90;88.90
54485;DHT22;45006;56.958;24.166;2023-01-15T01:09:50;23.90;89.20
54485;DHT22;45006;56.958;24.166;2023-01-15T01:12:17;23.90;89.30
54485;DHT22;45006;56.958;24.166;2023-01-15T01:14:44;23.90;89.30
54485;DHT22;45006;56.958;24.166;2023-01-15T01:17:10;24.00;89.20
54485;DHT22;45006;56.958;24.166;2023-01-15T01:19:38;24.00;90.00
54485;DHT22;45006;56.958;24.166;2023-01-15T01:22:04;24.00;90.40
54485;DHT22;45006;56.958;24.166;2023-01-15T01:24:31;24.00;91.10
54485;DHT22;45006;56.958;24.166;2023-01-15T01:26:58;24.00;90.50
54485;DHT22;45006;56.958;24.166;2023-01-15T01:29:25;24.00;91.40
54485;DHT22;45006;56.958;24.166;2023-01-15T01:31:51;24.00;90.00
54485;DHT22;45006;56.958;24.166;2023-01-15T01:34:18;24.00;90.30
54485;DHT22;45006;56.958;24.166;2023-01-15T01:36:45;24.00;91.00
54485;DHT22;45006;56.958;24.166;2023-01-15T01:39:13;24.00;91.80
54485;DHT22;45006;56.958;24.166;2023-01-15T01:41:40;24.00;91.80
54485;DHT22;45006;56.958;24.166;2023-01-15T01:46:53;24.00;91.90
54485;DHT22;45006;56.958;24.166;2023-01-15T01:51:51;23.90;92.40
54485;DHT22;45006;56.958;24.166;2023-01-15T01:56:47;24.00;93.10
54485;DHT22;45006;56.958;24.166;2023-01-15T01:59:15;24.00;91.50
54485;DHT22;45006;56.958;24.166;2023-01-15T02:01:42;24.00;91.50
54485;DHT22;45006;56.958;24.166;2023-01-15T02:04:09;24.00;92.20
54485;DHT22;45006;56.958;24.166;2023-01-15T02:06:37;24.00;91.80
54485;DHT22;45006;56.958;24.166;2023-01-15T02:09:04;24.10;91.70
54485;DHT22;45006;56.958;24.166;2023-01-15T02:11:31;24.10;91.80
54485;DHT22;45006;56.958;24.166;2023-01-15T02:16:50;24.00;92.30
54485;DHT22;45006;56.958;24.166;2023-01-15T02:24:16;24.10;92.30
54485;DHT22;45006;56.958;24.166;2023-01-15T02:29:50;24.10;92.40
54485;DHT22;45006;56.958;24.166;2023-01-15T02:39:35;24.00;92.50
54485;DHT22;45006;56.958;24.166;2023-01-15T03:14:21;24.10;92.30
54485;DHT22;45006;56.958;24.166;2023-01-15T03:16:51;24.10;92.20
54485;DHT22;45006;56.958;24.166;2023-01-15T03:24:14;24.10;92.00
54485;DHT22;45006;56.958;24.166;2023-01-15T03:26:44;24.10;92.00
54485;DHT22;45006;56.958;24.166;2023-01-15T03:29:11;24.10;92.30
54485;DHT22;45006;56.958;24.166;2023-01-15T03:48:55;24.10;93.20
54485;DHT22;45006;56.958;24.166;2023-01-15T03:53:55;24.10;92.50
54485;DHT22;45006;56.958;24.166;2023-01-15T04:01:20;24.10;91.40
54485;DHT22;45006;56.958;24.166;2023-01-15T04:03:48;24.10;91.20
54485;DHT22;45006;56.958;24.166;2023-01-15T04:06:15;24.20;90.80
54485;DHT22;45006;56.958;24.166;2023-01-15T04:08:43;24.10;91.00
54485;DHT22;45006;56.958;24.166;2023-01-15T04:11:11;24.10;90.90
54485;DHT22;45006;56.958;24.166;2023-01-15T04:13:37;24.20;91.10
54485;DHT22;45006;56.958;24.166;2023-01-15T04:16:04;24.10;91.10
54485;DHT22;45006;56.958;24.166;2023-01-15T04:18:31;24.10;91.40
54485;DHT22;45006;56.958;24.166;2023-01-15T04:20:58;24.20;91.30
54485;DHT22;45006;56.958;24.166;2023-01-15T04:23:25;24.20;91.20
54485;DHT22;45006;56.958;24.166;2023-01-15T04:25:51;24.20;91.20
54485;DHT22;45006;56.958;24.166;2023-01-15T04:30:45;24.10;91.30
54485;DHT22;45006;56.958;24.166;2023-01-15T04:35:40;24.10;91.60
54485;DHT22;45006;56.958;24.166;2023-01-15T04:38:07;24.10;90.30
54485;DHT22;45006;56.958;24.166;2023-01-15T04:40:34;24.10;90.10
54485;DHT22;45006;56.958;24.166;2023-01-15T04:43:19;24.10;90.70
54485;DHT22;45006;56.958;24.166;2023-01-15T04:46:05;24.10;90.90
54485;DHT22;45006;56.958;24.166;2023-01-15T04:48:32;24.20;91.40
54485;DHT22;45006;56.958;24.166;2023-01-15T04:51:02;24.10;91.70
54485;DHT22;45006;56.958;24.166;2023-01-15T04:53:29;24.10;91.70
54485;DHT22;45006;56.958;24.166;2023-01-15T04:56:03;24.10;91.90
54485;DHT22;45006;56.958;24.166;2023-01-15T11:50:34;24.00;86.60
54485;DHT22;45006;56.958;24.166;2023-01-15T11:53:16;24.10;84.80
54485;DHT22;45006;56.958;24.166;2023-01-15T11:56:19;24.10;84.50
54485;DHT22;45006;56.958;24.166;2023-01-15T12:01:11;24.10;85.00
54485;DHT22;45006;56.958;24.166;2023-01-15T12:03:38;24.00;84.80
54485;DHT22;45006;56.958;24.166;2023-01-15T12:06:07;24.00;84.70
54485;DHT22;45006;56.958;24.166;2023-01-15T12:45:06;24.00;84.10
54485;DHT22;45006;56.958;24.166;2023-01-15T12:47:49;24.00;84.30
54485;DHT22;45006;56.958;24.166;2023-01-15T12:53:10;24.00;84.10
54485;DHT22;45006;56.958;24.166;2023-01-15T12:55:39;24.00;84.00
54485;DHT22;45006;56.958;24.166;2023-01-15T13:03:58;23.90;84.20
54485;DHT22;45006;56.958;24.166;2023-01-15T13:06:26;24.00;84.20
54485;DHT22;45006;56.958;24.166;2023-01-15T13:08:56;24.00;84.20
54485;DHT22;45006;56.958;24.166;2023-01-15T13:11:24;24.00;84.10
54485;DHT22;45006;56.958;24.166;2023-01-15T13:13:52;24.00;84.00
54485;DHT22;45006;56.958;24.166;2023-01-15T13:16:27;23.90;83.90
54485;DHT22;45006;56.958;24.166;2023-01-15T13:19:11;24.00;84.10
54485;DHT22;45006;56.958;24.166;2023-01-15T13:21:42;23.90;84.10
54485;DHT22;45006;56.958;24.166;2023-01-15T13:27:04;24.00;84.40
54485;DHT22;45006;56.958;24.166;2023-01-15T13:29:49;24.00;84.60
54485;DHT22;45006;56.958;24.166;2023-01-15T13:32:19;23.90;85.10
54485;DHT22;45006;56.958;24.166;2023-01-15T13:34:47;23.80;85.50
54485;DHT22;45006;56.958;24.166;2023-01-15T13:37:22;23.80;84.60
54485;DHT22;45006;56.958;24.166;2023-01-15T13:39:51;23.80;85.00
54485;DHT22;45006;56.958;24.166;2023-01-15T13:59:43;23.90;91.80
54485;DHT22;45006;56.958;24.166;2023-01-15T14:04:37;23.80;64.30
54485;DHT22;45006;56.958;24.166;2023-01-15T14:07:15;23.60;69.20
54485;DHT22;45006;56.958;24.166;2023-01-15T14:09:43;23.40;69.80
54485;DHT22;45006;56.958;24.166;2023-01-15T14:22:34;23.00;63.70
54485;DHT22;45006;56.958;24.166;2023-01-15T14:27:51;23.00;68.30
54485;DHT22;45006;56.958;24.166;2023-01-15T14:32:53;23.00;70.30
54485;DHT22;45006;56.958;24.166;2023-01-15T14:35:23;23.00;71.80
54485;DHT22;45006;56.958;24.166;2023-01-15T14:37:52;22.90;71.70
54485;DHT22;45006;56.958;24.166;2023-01-15T14:40:38;22.80;64.40
54485;DHT22;45006;56.958;24.166;2023-01-15T14:43:13;22.80;65.10
54485;DHT22;45006;56.958;24.166;2023-01-15T14:45:43;22.80;64.90
54485;DHT22;45006;56.958;24.166;2023-01-15T14:48:20;22.80;65.60
54485;DHT22;45006;56.958;24.166;2023-01-15T14:51:07;22.80;65.10
54485;DHT22;45006;56.958;24.166;2023-01-15T15:03:51;22.70;65.20
54485;DHT22;45006;56.958;24.166;2023-01-15T15:06:19;22.70;65.30
54485;DHT22;45006;56.958;24.166;2023-01-15T15:08:46;22.70;65.40
54485;DHT22;45006;56.958;24.166;2023-01-15T15:11:15;22.70;65.40
54485;DHT22;45006;56.958;24.166;2023-01-15T15:14:04;22.70;65.40
54485;DHT22;45006;56.958;24.166;2023-01-15T15:16:32;22.70;65.50
54485;DHT22;45006;56.958;24.166;2023-01-15T15:19:10;22.70;65.60
54485;DHT22;45006;56.958;24.166;2023-01-15T15:21:40;22.70;65.70
54485;DHT22;45006;56.958;24.166;2023-01-15T15:24:14;22.70;65.80
54485;DHT22;45006;56.958;24.166;2023-01-15T15:26:43;22.70;66.00
54485;DHT22;45006;56.958;24.166;2023-01-15T15:29:11;22.70;66.20
54485;DHT22;45006;56.958;24.166;2023-01-15T15:37:03;22.70;67.30
54485;DHT22;45006;56.958;24.166;2023-01-15T15:39:34;22.70;67.00
54485;DHT22;45006;56.958;24.166;2023-01-15T15:42:09;22.70;67.30
54485;DHT22;45006;56.958;24.166;2023-01-15T15:44:58;22.70;67.50
54485;DHT22;45006;56.958;24.166;2023-01-15T15:47:43;22.70;67.70
54485;DHT22;45006;56.958;24.166;2023-01-15T15:50:30;22.70;67.80
54485;DHT22;45006;56.958;24.166;2023-01-15T15:52:57;22.70;67.80
54485;DHT22;45006;56.958;24.166;2023-01-15T15:55:25;22.70;67.80
54485;DHT22;45006;56.958;24.166;2023-01-15T15:57:53;22.70;67.90
54485;DHT22;45006;56.958;24.166;2023-01-15T16:00:42;22.70;68.00
54485;DHT22;45006;56.958;24.166;2023-01-15T16:03:21;22.70;68.00
54485;DHT22;45006;56.958;24.166;2023-01-15T16:05:59;22.70;68.00
54485;DHT22;45006;56.958;24.166;2023-01-15T16:08:27;22.70;68.00
54485;DHT22;45006;56.958;24.166;2023-01-15T16:10:58;22.70;68.20
54485;DHT22;45006;56.958;24.166;2023-01-15T16:13:32;22.70;68.30
54485;DHT22;45006;56.958;24.166;2023-01-15T16:16:00;22.70;68.30
54485;DHT22;45006;56.958;24.166;2023-01-15T16:18:31;22.70;68.30
54485;DHT22;45006;56.958;24.166;2023-01-15T16:21:00;22.70;68.40
54485;DHT22;45006;56.958;24.166;2023-01-15T16:23:27;22.70;68.50
54485;DHT22;45006;56.958;24.166;2023-01-15T16:25:59;22.70;68.60
54485;DHT22;45006;56.958;24.166;2023-01-15T16:28:32;22.70;68.50
54485;DHT22;45006;56.958;24.166;2023-01-15T16:31:00;22.70;68.60
54485;DHT22;45006;56.958;24.166;2023-01-15T16:33:30;22.70;68.60
54485;DHT22;45006;56.958;24.166;2023-01-15T16:36:00;22.70;68.60
54485;DHT22;45006;56.958;24.166;2023-01-15T16:38:31;22.70;68.40
54485;DHT22;45006;56.958;24.166;2023-01-15T16:40:59;22.70;68.30
54485;DHT22;45006;56.958;24.166;2023-01-15T16:43:26;22.70;68.30
54485;DHT22;45006;56.958;24.166;2023-01-15T16:50:55;22.70;68.60
54485;DHT22;45006;56.958;24.166;2023-01-15T16:53:28;22.70;68.70
54485;DHT22;45006;56.958;24.166;2023-01-15T16:55:55;22.70;68.90
54485;DHT22;45006;56.958;24.166;2023-01-15T16:58:38;22.70;68.90
54485;DHT22;45006;56.958;24.166;2023-01-15T17:03:52;22.70;69.10
54485;DHT22;45006;56.958;24.166;2023-01-15T17:06:21;22.70;69.20
54485;DHT22;45006;56.958;24.166;2023-01-15T17:08:48;22.70;69.40
54485;DHT22;45006;56.958;24.166;2023-01-15T17:11:19;22.70;69.30
54485;DHT22;45006;56.958;24.166;2023-01-15T17:13:46;22.70;69.50
54485;DHT22;45006;56.958;24.166;2023-01-15T17:16:18;22.70;69.40
54485;DHT22;45006;56.958;24.166;2023-01-15T17:18:50;22.70;69.60
54485;DHT22;45006;56.958;24.166;2023-01-15T17:21:18;22.70;69.60
54485;DHT22;45006;56.958;24.166;2023-01-15T17:23:47;22.70;69.50
54485;DHT22;45006;56.958;24.166;2023-01-15T17:26:17;22.70;69.40
54485;DHT22;45006;56.958;24.166;2023-01-15T17:28:45;22.70;69.40
54485;DHT22;45006;56.958;24.166;2023-01-15T17:31:15;22.70;69.20
54485;DHT22;45006;56.958;24.166;2023-01-15T17:33:43;22.70;69.00
54485;DHT22;45006;56.958;24.166;2023-01-15T17:36:10;22.70;68.70
54485;DHT22;45006;56.958;24.166;2023-01-15T17:38:37;22.70;67.60
54485;DHT22;45006;56.958;24.166;2023-01-15T17:41:04;22.70;66.70
54485;DHT22;45006;56.958;24.166;2023-01-15T17:43:32;22.70;66.70
54485;DHT22;45006;56.958;24.166;2023-01-15T17:45:59;22.70;66.80
54485;DHT22;45006;56.958;24.166;2023-01-15T17:48:26;22.70;66.90
54485;DHT22;45006;56.958;24.166;2023-01-15T17:50:53;22.70;66.90
54485;DHT22;45006;56.958;24.166;2023-01-15T17:53:21;22.70;67.00
54485;DHT22;45006;56.958;24.166;2023-01-15T17:55:48;22.70;67.10
54485;DHT22;45006;56.958;24.166;2023-01-15T17:58:33;22.70;67.10
54485;DHT22;45006;56.958;24.166;2023-01-15T18:01:19;22.70;67.00
54485;DHT22;45006;56.958;24.166;2023-01-15T18:04:09;22.70;67.00
54485;DHT22;45006;56.958;24.166;2023-01-15T18:06:58;22.70;67.00
54485;DHT22;45006;56.958;24.166;2023-01-15T18:09:27;22.70;67.00
54485;DHT22;45006;56.958;24.166;2023-01-15T18:11:54;22.70;67.30
54485;DHT22;45006;56.958;24.166;2023-01-15T18:14:21;22.70;67.20
54485;DHT22;45006;56.958;24.166;2023-01-15T18:16:48;22.70;67.30
54485;DHT22;45006;56.958;24.166;2023-01-15T18:19:15;22.70;67.40
54485;DHT22;45006;56.958;24.166;2023-01-15T18:21:42;22.70;67.60
54485;DHT22;45006;56.958;24.166;2023-01-15T18:24:09;22.70;67.70
54485;DHT22;45006;56.958;24.166;2023-01-15T18:26:38;22.70;67.70
54485;DHT22;45006;56.958;24.166;2023-01-15T18:29:05;22.70;67.70
54485;DHT22;45006;56.958;24.166;2023-01-15T18:31:32;22.70;67.80
54485;DHT22;45006;56.958;24.166;2023-01-15T18:33:59;22.70;67.80
54485;DHT22;45006;56.958;24.166;2023-01-15T18:36:26;22.70;67.80
54485;DHT22;45006;56.958;24.166;2023-01-15T18:38:53;22.70;67.80
54485;DHT22;45006;56.958;24.166;2023-01-15T18:41:22;22.70;66.70
54485;DHT22;45006;56.958;24.166;2023-01-15T18:46:47;22.70;66.30
54485;DHT22;45006;56.958;24.166;2023-01-15T18:49:15;22.70;66.90
54485;DHT22;45006;56.958;24.166;2023-01-15T18:51:42;22.70;67.10
54485;DHT22;45006;56.958;24.166;2023-01-15T18:54:09;22.70;67.20
54485;DHT22;45006;56.958;24.166;2023-01-15T18:56:36;22.70;67.30
54485;DHT22;45006;56.958;24.166;2023-01-15T18:59:16;22.70;67.30
54485;DHT22;45006;56.958;24.166;2023-01-15T19:01:43;22.70;67.40
54485;DHT22;45006;56.958;24.166;2023-01-15T19:04:10;22.70;67.40
54485;DHT22;45006;56.958;24.166;2023-01-15T19:06:37;22.70;67.30
54485;DHT22;45006;56.958;24.166;2023-01-15T19:09:04;22.70;67.40
54485;DHT22;45006;56.958;24.166;2023-01-15T19:11:32;22.70;67.60
54485;DHT22;45006;56.958;24.166;2023-01-15T19:13:59;22.70;68.40
54485;DHT22;45006;56.958;24.166;2023-01-15T19:16:44;22.70;69.10
54485;DHT22;45006;56.958;24.166;2023-01-15T19:19:30;22.70;70.30
54485;DHT22;45006;56.958;24.166;2023-01-15T19:21:57;22.70;70.80
54485;DHT22;45006;56.958;24.166;2023-01-15T19:24:42;22.70;71.00
54485;DHT22;45006;56.958;24.166;2023-01-15T19:27:09;22.70;71.00
54485;DHT22;45006;56.958;24.166;2023-01-15T19:29:36;22.70;71.00
54485;DHT22;45006;56.958;24.166;2023-01-15T19:32:03;22.70;70.80
54485;DHT22;45006;56.958;24.166;2023-01-15T19:34:31;22.70;70.70
54485;DHT22;45006;56.958;24.166;2023-01-15T19:37:00;22.70;70.60
54485;DHT22;45006;56.958;24.166;2023-01-15T19:39:27;22.70;70.40
54485;DHT22;45006;56.958;24.166;2023-01-15T19:41:54;22.70;70.30
54485;DHT22;45006;56.958;24.166;2023-01-15T19:44:40;22.80;67.90
54485;DHT22;45006;56.958;24.166;2023-01-15T19:47:29;22.80;67.60
54485;DHT22;45006;56.958;24.166;2023-01-15T19:50:15;22.80;67.90
54485;DHT22;45006;56.958;24.166;2023-01-15T19:52:46;22.80;68.30
54485;DHT22;45006;56.958;24.166;2023-01-15T19:55:13;22.80;68.60
54485;DHT22;45006;56.958;24.166;2023-01-15T19:57:41;22.80;68.90
54485;DHT22;45006;56.958;24.166;2023-01-15T20:00:09;22.80;69.10
54485;DHT22;45006;56.958;24.166;2023-01-15T20:02:37;22.80;69.20
54485;DHT22;45006;56.958;24.166;2023-01-15T20:05:04;22.80;69.30
54485;DHT22;45006;56.958;24.166;2023-01-15T20:07:31;22.80;69.40
54485;DHT22;45006;56.958;24.166;2023-01-15T20:09:58;22.80;69.40
54485;DHT22;45006;56.958;24.166;2023-01-15T20:12:25;22.80;69.40
54485;DHT22;45006;56.958;24.166;2023-01-15T20:15:10;22.80;69.60
54485;DHT22;45006;56.958;24.166;2023-01-15T20:17:37;22.80;69.60
54485;DHT22;45006;56.958;24.166;2023-01-15T20:20:04;22.80;69.50
54485;DHT22;45006;56.958;24.166;2023-01-15T20:22:31;22.70;69.60
54485;DHT22;45006;56.958;24.166;2023-01-15T20:24:57;22.70;69.70
54485;DHT22;45006;56.958;24.166;2023-01-15T20:27:24;22.80;70.40
54485;DHT22;45006;56.958;24.166;2023-01-15T20:29:51;22.80;69.90
54485;DHT22;45006;56.958;24.166;2023-01-15T20:32:23;22.80;69.90
54485;DHT22;45006;56.958;24.166;2023-01-15T20:34:50;22.80;70.00
54485;DHT22;45006;56.958;24.166;2023-01-15T20:37:17;22.80;70.00
54485;DHT22;45006;56.958;24.166;2023-01-15T20:39:44;22.80;70.10
54485;DHT22;45006;56.958;24.166;2023-01-15T20:42:10;22.80;70.20
54485;DHT22;45006;56.958;24.166;2023-01-15T20:44:56;22.80;70.00
54485;DHT22;45006;56.958;24.166;2023-01-15T20:47:23;22.80;68.00
54485;DHT22;45006;56.958;24.166;2023-01-15T20:50:14;22.80;67.60
54485;DHT22;45006;56.958;24.166;2023-01-15T20:52:45;22.80;68.10
54485;DHT22;45006;56.958;24.166;2023-01-15T20:55:12;22.80;68.70
54485;DHT22;45006;56.958;24.166;2023-01-15T20:57:39;22.80;68.90
54485;DHT22;45006;56.958;24.166;2023-01-15T21:00:07;22.80;68.90
54485;DHT22;45006;56.958;24.166;2023-01-15T21:02:34;22.80;68.90
54485;DHT22;45006;56.958;24.166;2023-01-15T21:05:01;22.80;69.00
54485;DHT22;45006;56.958;24.166;2023-01-15T21:07:28;22.80;69.00
54485;DHT22;45006;56.958;24.166;2023-01-15T21:09:54;22.80;69.00
54485;DHT22;45006;56.958;24.166;2023-01-15T21:12:21;22.80;69.00
54485;DHT22;45006;56.958;24.166;2023-01-15T21:14:48;22.80;69.10
54485;DHT22;45006;56.958;24.166;2023-01-15T21:17:15;22.80;69.10
54485;DHT22;45006;56.958;24.166;2023-01-15T21:19:41;22.80;69.10
54485;DHT22;45006;56.958;24.166;2023-01-15T21:22:08;22.80;69.20
54485;DHT22;45006;56.958;24.166;2023-01-15T21:24:35;22.80;69.20
54485;DHT22;45006;56.958;24.166;2023-01-15T21:27:02;22.80;69.20
54485;DHT22;45006;56.958;24.166;2023-01-15T21:29:28;22.80;69.20
54485;DHT22;45006;56.958;24.166;2023-01-15T21:31:55;22.80;69.10
54485;DHT22;45006;56.958;24.166;2023-01-15T21:34:22;22.80;69.10
54485;DHT22;45006;56.958;24.166;2023-01-15T21:36:49;22.80;69.10
54485;DHT22;45006;56.958;24.166;2023-01-15T21:39:16;22.80;69.10
54485;DHT22;45006;56.958;24.166;2023-01-15T21:41:43;22.80;69.20
54485;DHT22;45006;56.958;24.166;2023-01-15T21:44:28;22.80;69.20
54485;DHT22;45006;56.958;24.166;2023-01-15T21:47:01;22.80;69.20
54485;DHT22;45006;56.958;24.166;2023-01-15T21:49:28;22.80;67.40
54485;DHT22;45006;56.958;24.166;2023-01-15T21:51:58;22.90;67.00
54485;DHT22;45006;56.958;24.166;2023-01-15T21:54:27;22.90;67.20
54485;DHT22;45006;56.958;24.166;2023-01-15T21:56:54;22.90;67.70
54485;DHT22;45006;56.958;24.166;2023-01-15T21:59:21;22.90;68.20
54485;DHT22;45006;56.958;24.166;2023-01-15T22:01:51;22.90;68.50
54485;DHT22;45006;56.958;24.166;2023-01-15T22:04:18;22.80;69.20
54485;DHT22;45006;56.958;24.166;2023-01-15T22:06:45;22.80;69.20
54485;DHT22;45006;56.958;24.166;2023-01-15T22:09:11;22.80;69.60
54485;DHT22;45006;56.958;24.166;2023-01-15T22:11:38;22.90;69.80
54485;DHT22;45006;56.958;24.166;2023-01-15T22:14:12;22.90;70.50
54485;DHT22;45006;56.958;24.166;2023-01-15T22:16:39;22.90;70.70
54485;DHT22;45006;56.958;24.166;2023-01-15T22:19:06;22.90;70.80
54485;DHT22;45006;56.958;24.166;2023-01-15T22:21:33;22.90;71.10
54485;DHT22;45006;56.958;24.166;2023-01-15T22:24:01;22.90;71.30
54485;DHT22;45006;56.958;24.166;2023-01-15T22:26:28;23.00;71.40
54485;DHT22;45006;56.958;24.166;2023-01-15T22:28:58;22.90;71.60
54485;DHT22;45006;56.958;24.166;2023-01-15T22:31:25;23.00;71.70
54485;DHT22;45006;56.958;24.166;2023-01-15T22:33:52;23.00;71.60
54485;DHT22;45006;56.958;24.166;2023-01-15T22:36:20;22.90;71.80
54485;DHT22;45006;56.958;24.166;2023-01-15T22:38:49;23.00;72.00
54485;DHT22;45006;56.958;24.166;2023-01-15T22:41:20;23.00;72.30
54485;DHT22;45006;56.958;24.166;2023-01-15T22:44:07;23.00;72.30
54485;DHT22;45006;56.958;24.166;2023-01-15T22:46:34;23.00;72.40
54485;DHT22;45006;56.958;24.166;2023-01-15T22:49:02;23.00;72.20
54485;DHT22;45006;56.958;24.166;2023-01-15T22:51:29;23.00;72.30
54485;DHT22;45006;56.958;24.166;2023-01-15T22:53:56;23.00;72.50
54485;DHT22;45006;56.958;24.166;2023-01-15T22:56:23;23.00;72.30
54485;DHT22;45006;56.958;24.166;2023-01-15T22:58:53;23.00;72.40
54485;DHT22;45006;56.958;24.166;2023-01-15T23:01:21;23.00;72.40
54485;DHT22;45006;56.958;24.166;2023-01-15T23:03:49;23.00;72.50
54485;DHT22;45006;56.958;24.166;2023-01-15T23:06:15;23.00;72.50
54485;DHT22;45006;56.958;24.166;2023-01-15T23:08:45;23.00;72.50
54485;DHT22;45006;56.958;24.166;2023-01-15T23:11:13;23.00;72.50
54485;DHT22;45006;56.958;24.166;2023-01-15T23:13:41;23.00;72.60
54485;DHT22;45006;56.958;24.166;2023-01-15T23:16:08;23.00;72.60
54485;DHT22;45006;56.958;24.166;2023-01-15T23:18:35;23.00;72.70
54485;DHT22;45006;56.958;24.166;2023-01-15T23:21:05;23.00;72.90
54485;DHT22;45006;56.958;24.166;2023-01-15T23:23:32;23.00;72.90
54485;DHT22;45006;56.958;24.166;2023-01-15T23:26:00;23.00;73.10
54485;DHT22;45006;56.958;24.166;2023-01-15T23:28:27;23.00;73.10
54485;DHT22;45006;56.958;24.166;2023-01-15T23:30:54;23.00;73.20
54485;DHT22;45006;56.958;24.166;2023-01-15T23:33:21;23.00;73.20
54485;DHT22;45006;56.958;24.166;2023-01-15T23:35:48;23.00;73.20
54485;DHT22;45006;56.958;24.166;2023-01-15T23:38:15;23.10;73.30
54485;DHT22;45006;56.958;24.166;2023-01-15T23:40:42;23.00;73.60
54485;DHT22;45006;56.958;24.166;2023-01-15T23:43:12;23.00;73.30
54485;DHT22;45006;56.958;24.166;2023-01-15T23:45:58;23.00;73.40
54485;DHT22;45006;56.958;24.166;2023-01-15T23:48:44;23.10;74.00
54485;DHT22;45006;56.958;24.166;2023-01-15T23:51:11;23.10;73.70
54485;DHT22;45006;56.958;24.166;2023-01-15T23:53:37;23.00;73.40
54485;DHT22;45006;56.958;24.166;2023-01-15T23:56:04;23.10;73.30
54485;DHT22;45006;56.958;24.166;2023-01-15T23:58:31;23.10;73.30
